Aeroporto :
LOGIN :

Iscrizione | Disclaimer

   EN    FR    IT 

 










Sommario :    VFR   VFR Marginale   IFR   IFR Intensivo   IFR Molto Intensivo
Visibilità : 
Base nubi : 
>= 8 km
>= 3000ft
5 / 8 km
1000 / 3000 ft
1500m / 5 km
500 / 1000 ft
800 / 1500m
200 / 500 ft
< 800m
< 200 ft
Simboli :   Temporali  Nebbia  Neve Forte  Precipitazioni Forti  Vento > 20 kt
SIGMETs :   Varie  Temporali  Ghiacco  Turbolenza  Onda orograficha  Ceneri Vulcaniche






- Altitudine del aeroporto : 472 ft
- Codice IATA : GME


UMGG - Gomel

ULTIMO METAR :
  • 220100Z 19002MPS CAVOK 09/07 Q1021 R28/CLRD// NOSIG

METARs OBSOLETI :
  • 220000Z 19003MPS CAVOK 10/07 Q1021 R28/D NOSIG
  • 212300Z 19003MPS CAVOK 10/07 Q1021 R28/CLRD// NOSIG

TAF TAF UMGG
Valido dal 22 a 00 ore il 23 a 00 ore UTC


212300Z 2200/2224 21005MPS 9999 SCT020
TEMPO 2200/2206 2000 BR SCT005
TEMPO 2208/2215 22006G11MPS
TEMPO 2220/2224 2000 BR SCT005



MetMap, La meteo Aeronautica in un colpo d'occhio ! - Copyright ORBIFLY Dicembre 2007 - Disclaimer

ORBIFLY MET'MAP TEAM :

Programmazione e sviluppo : Alexandra Zaïnal
Concezione : Baudouin d'Aumeries
Aiuto per la programmazione : Marc-Olivier Méhu
Supporto tecnico e logistico : Manuel Goepfert
Aiuto per la traduzione : Arnaldo La Scala

Contatto : metmap@orbifly.com




FONTI E CREDITI :

   NOAA